Aeroporto :
LOGIN :

Iscrizione | Disclaimer

   EN    FR    IT 

 










Sommario :    VFR   VFR Marginale   IFR   IFR Intensivo   IFR Molto Intensivo
Visibilità : 
Base nubi : 
>= 8 km
>= 3000ft
5 / 8 km
1000 / 3000 ft
1500m / 5 km
500 / 1000 ft
800 / 1500m
200 / 500 ft
< 800m
< 200 ft
Simboli :   Temporali  Nebbia  Neve Forte  Precipitazioni Forti  Vento > 20 kt
SIGMETs :   Varie  Temporali  Ghiacco  Turbolenza  Onda orograficha  Ceneri Vulcaniche






- Altitudine del aeroporto : 1197 ft
- Codice IATA : SPM


ETAD - Spangdahlem Ab

ULTIMO METAR :
  • 200256Z AUTO 20013KT 9999 OVC003 04/04 A3011 RMK AO2 RAB21E33 SLP199 P0000 60000 T00400039 57017 $

METARs OBSOLETI :
  • 200233Z AUTO 20013KT 9999 OVC004 04/04 A3012 RMK AO2 RAB21E33 SLP202 $
  • 200221Z AUTO 20009KT 9999 -RA OVC004 04/04 A3012 RMK AO2 RAB21 SLP202 $
  • 200211Z AUTO 20009KT 9999 OVC004 04/04 A3013 RMK AO2 SLP205 $
  • 200156Z AUTO 20011KT 9999 OVC005 04/04 A3013 RMK AO2 CIG 004 RWY05 SLP205 T00390035 $
  • 200141Z AUTO 20010KT 9999 OVC005 04/04 A3013 RMK AO2 SLP205 $
  • 200111Z AUTO 20010KT 9999 OVC006 04/03 A3014 RMK AO2 SLP209 $
  • 200056Z AUTO 20009KT 9999 OVC007 04/03 A3015 RMK AO2 RAB18E28 SLP212 P0000 T00360030 $
  • 200028Z AUTO 20008KT 9999 OVC008 04/03 A3016 RMK AO2 RAB18E28 SLP216 $
  • 200018Z AUTO 21008KT 9999 -RA OVC009 04/03 A3016 RMK AO2 RAB18 SLP216 $

TAF TAF ETAD
Valido dal 19 a 21 ore il 21 a 03 ore UTC


192100Z 1921/2103 24010KT 8000 -RA BKN015 OVC025 610209 QNH3006INS
BECMG 2005/2006 22010G15KT 9999 NSW BKN008 OVC012 620202 QNH3004INS
BECMG 2009/2010 21015G25KT 9999 BKN015 QNH2994INS
BECMG 2019/2020 24015G25KT 8000 -SHRA BKN018 610209 QNH2994INS
BECMG 2100/2101 28015G25KT 9999 NSW BKN025 QNH3012INS TX07/2014Z TN03/1921Z LAST NO AMDS AFT 1921 NEXT 2005



MetMap, La meteo Aeronautica in un colpo d'occhio ! - Copyright ORBIFLY Dicembre 2007 - Disclaimer

ORBIFLY MET'MAP TEAM :

Programmazione e sviluppo : Alexandra Zaïnal
Concezione : Baudouin d'Aumeries
Aiuto per la programmazione : Marc-Olivier Méhu
Supporto tecnico e logistico : Manuel Goepfert
Aiuto per la traduzione : Arnaldo La Scala

Contatto : metmap@orbifly.com




FONTI E CREDITI :

   NOAA